METAR Data
IDs: Format: Raw Decoded Include TAF

Data at: 1648 UTC 24 Aug 2019

PAIW 241556Z AUTO 28006KT 10SM OVC009 07/06 A2991 RMK AO2 SLP131 T00670056
PAIW 241521Z AUTO 35005KT 10SM OVC009 07/06 A2991 RMK AO2
PAIW 241456Z AUTO 36006KT 10SM OVC011 07/06 A2992 RMK AO2 SLP132 T00720056 56005
PAIW 241409Z AUTO 36007KT 10SM OVC013 07/06 A2992 RMK AO2
PAIW 241356Z AUTO 03006KT 10SM OVC015 07/06 A2992 RMK AO2 SLP133 T00720056
PAIW 241256Z AUTO 03005KT 10SM OVC017 08/04 A2993 RMK AO2 SLP136 T00780044
PAIW 241156Z AUTO 03006KT 10SM OVC019 08/04 A2993 RMK AO2 SLP137 70001 T00780044 10078 20072 57002
PAIW 241056Z AUTO 03010KT 10SM OVC019 08/04 A2993 RMK AO2 SLP137 T00780044
PAIW 240956Z AUTO 02009KT 10SM OVC019 08/05 A2994 RMK AO2 SLP139 T00780050
PAIW 240856Z AUTO 04010KT 10SM OVC019 08/05 A2994 RMK AO2 SLP139 T00780050 400890072 53003
PAIW 240756Z AUTO 02011KT 10SM OVC019 08/05 A2993 RMK AO2 SLP137 T00780050
PAIW 240656Z AUTO 02015KT 10SM OVC017 08/06 A2993 RMK AO2 SLP136 T00780056
PAIW 240556Z AUTO 01011KT 10SM BKN017 OVC021 08/06 A2993 RMK AO2 RAE30 SLP137 P0000 60000 T00780061 10089 20072 50003
PAIW 240533Z AUTO 03013KT 7SM FEW010 BKN016 OVC023 07/07 A2993 RMK AO2 RAE30 P0000
PAIW 240524Z AUTO 01014G18KT 5SM -RA BR BKN012 OVC018 08/07 A2993 RMK AO2 P0000
PAIW 240519Z AUTO 03014G18KT 2 1/2SM -RA BR SCT008 OVC015 07/07 A2993 RMK AO2 VIS 1 1/2V5 P0000
PAIW 240506Z AUTO 01014G18KT 9SM -RA SCT008 OVC015 08/07 A2993 RMK AO2 P0000
PAIW 240456Z AUTO 03012KT 4SM -RA BR SCT008 BKN012 OVC019 08/07 A2993 RMK AO2 RAB38 SLP138 P0000 T00780072
PAIW 240442Z AUTO 36014KT 2 1/2SM -RA BR FEW008 BKN017 OVC022 08/07 A2993 RMK AO2 VIS 1 1/4V5 RAB38 P0000
PAIW 240356Z AUTO 03014G19KT 10SM OVC018 08/06 A2993 RMK AO2 RAB03E21 SLP137 P0000 T00830056
PAIW 240309Z AUTO 03014KT 9SM -RA FEW009 OVC019 08/07 A2992 RMK AO2 RAB03 P0000
PAIW 240256Z AUTO 03016G22KT 10SM OVC020 08/06 A2992 RMK AO2 SLP134 60000 T00830056 58005
PAIW 240156Z AUTO 03016KT 10SM OVC020 08/06 A2993 RMK AO2 SLP136 T00830056
PAIW 240056Z AUTO 02019G23KT 8SM SCT012 OVC020 08/07 A2993 RMK AO2 RAE54 SLP138 P0000 T00830067
PAIW 240044Z AUTO 03014G22KT 3SM -RA BR BKN014 OVC022 08/07 A2994 RMK AO2 P0000
PAIW 240006Z AUTO 36015G22KT 3SM -RA BR FEW009 BKN016 OVC025 08/07 A2994 RMK AO2 P0000
PAIW 232356Z AUTO 01016G22KT 10SM -RA FEW007 BKN011 OVC023 08/08 A2994 RMK AO2 SLP139 P0000 60000 T00830078 10089 20078 53005
PAIW 232256Z AUTO 36020G23KT 2SM -RA BR FEW007 BKN010 OVC031 08/07 A2993 RMK AO2 VIS 1 1/4V5 RAB08 SLP136 P0000 T00830072
PAIW 232251Z AUTO 36017G23KT 2 1/2SM -RA BR SCT008 BKN013 OVC031 08/07 A2993 RMK AO2 VIS 1 1/4V5 RAB08 P0000
PAIW 232246Z AUTO 36019G24KT 2 1/2SM -RA BR SCT010 BKN015 OVC026 08/07 A2993 RMK AO2 VIS 1 1/4V5 RAB08 P0000
PAIW 232231Z AUTO 01018G24KT 3SM -RA BR BKN010 BKN015 OVC031 08/08 A2993 RMK AO2 RAB08 CIG 007V012 P0000
PAIW 232224Z AUTO 36018KT 6SM -RA BR SCT008 BKN015 OVC031 09/08 A2992 RMK AO2 RAB08 P0000
PAIW 232221Z AUTO 36013KT 5SM -RA BR BKN010 BKN018 OVC031 09/07 A2992 RMK AO2 RAB08 P0000
PAIW 232212Z AUTO 01019G25KT 2 1/2SM -RA BR BKN013 OVC021 08/07 A2992 RMK AO2 VIS 1 1/4V5 RAB08 P0000
PAIW 232156Z AUTO 36019G24KT 10SM SCT012 BKN018 OVC025 09/07 A2992 RMK AO2 SLP134 T00890067
PAIW 232153Z AUTO 36019G23KT 8SM SCT012 BKN017 OVC023 08/07 A2992 RMK AO2
PAIW 232114Z AUTO 35019G22KT 8SM FEW009 BKN013 OVC025 09/07 A2991 RMK AO2
PAIW 232056Z AUTO 01022G25KT 10SM FEW015 BKN021 OVC032 09/07 A2991 RMK AO2 PK WND 36026/2010 RAB30E40 SLP131 P0000 60000 T00890067 53002
PAIW 231956Z AUTO 36017G25KT 10SM FEW010 BKN018 OVC032 09/07 A2991 RMK AO2 PK WND 36026/1946 RAB07E50 SLP131 P0000 T00890072
PAIW 231904Z AUTO 36017KT 4SM BR FEW006 BKN010 OVC017 08/08 A2990 RMK AO2 CIG 008V013
PAIW 231856Z AUTO 36017G20KT 6SM BR SCT006 BKN016 OVC020 08/08 A2990 RMK AO2 RAE48 SLP128 P0000 T00830078
PAIW 231847Z AUTO 36016KT 5SM -RA BR SCT008 BKN014 OVC020 08/08 A2990 RMK AO2 P0000
PAIW 231835Z AUTO 36014KT 2 1/2SM -RA BR SCT006 BKN010 OVC015 08/08 A2990 RMK AO2 VIS 1 1/2V5 CIG 008V013 P0000
PAIW 231818Z AUTO 36015KT 2SM -RA BR OVC008 08/07 A2990 RMK AO2 CIG 006V013 P0000
PAIW 231756Z AUTO 36016KT 10SM -RA OVC008 08/07 A2991 RMK AO2 CIG 005V009 SLP129 P0000 60001 T00830072 10089 20078 51005
PAIW 231656Z AUTO 36015G21KT 7SM -RA OVC006 08/08 A2990 RMK AO2 RAB28 SLP127 P0000 T00830078
PAIW 231556Z AUTO 36015G23KT 6SM BR OVC006 08/08 A2990 RMK AO2 SLP126 T00830078
PAIW 231456Z AUTO 36017G23KT 9SM OVC006 08/08 A2989 RMK AO2 RAE55 CIG 004V010 SLP124 P0000 60001 T00830078 57003
PAIW 231451Z AUTO 36019G23KT 7SM -RA OVC006 08/08 A2989 RMK AO2 CIG 004V010 P0000
PAIW 231442Z AUTO 36016G21KT 2 1/2SM -RA BR OVC008 08/08 A2989 RMK AO2 CIG 004V010 P0000
PAIW 231356Z AUTO 36016KT 4SM -RA BR BKN008 OVC012 08/08 A2990 RMK AO2 CIG 005V009 SLP126 P0001 T00830078
PAIW 231256Z AUTO 36013G21KT 8SM -RA OVC008 08/08 A2990 RMK AO2 RAE27B47 SLP127 P0000 T00830078
PAIW 231156Z AUTO 35014KT 6SM -RA BR BKN008 OVC013 08/07 A2990 RMK AO2 RAB24 CIG 007V011 SLP127 P0000 60000 T00830072 10083 20072 55003
PAIW 231140Z AUTO 36013KT 6SM -RA BR BKN010 OVC014 08/07 A2990 RMK AO2 RAB24 CIG 006V013 P0000
PAIW 231123Z AUTO 36015KT 5SM BR BKN009 OVC014 08/07 A2991 RMK AO2 CIG 006V012
PAIW 231056Z AUTO 36014KT 10SM OVC011 08/07 A2991 RMK AO2 SLP128 T00830067
PAIW 231015Z AUTO 36013KT 9SM BKN013 OVC017 08/07 A2991 RMK AO2
PAIW 230956Z AUTO 36014KT 10SM BKN015 OVC020 08/06 A2991 RMK AO2 RAE50 SLP131 P0000 T00780061
PAIW 230942Z AUTO 36013KT 10SM -RA BKN015 OVC020 08/06 A2991 RMK AO2 P0000
PAIW 230935Z AUTO 36015KT 10SM -RA BKN013 OVC020 08/06 A2991 RMK AO2 P0000
PAIW 230856Z AUTO 01012KT 6SM -RA BR BKN019 OVC023 08/06 A2992 RMK AO2 SLP132 P0000 60000 T00780061 401170072 50000
PAIW 230756Z AUTO 01013KT 6SM -RA BR OVC018 08/06 A2992 RMK AO2 RAB46 SLP134 P0000 T00780061
PAIW 230656Z AUTO 01016G21KT 10SM OVC024 08/04 A2992 RMK AO2 PK WND 36026/0639 RAB0557E21 SLP132 P0000 T00780044
PAIW 230556Z AUTO 35019G23KT 8SM OVC015 08/06 A2992 RMK AO2 RAE38 SLP132 P0000 60000 T00780056 10111 20078 50002
PAIW 230456Z AUTO 36017G25KT 10SM -RA OVC017 08/06 A2992 RMK AO2 RAB03 SLP133 P0000 T00830056